createdAt,value
2022-09-21T00:01:29.961Z,1.00
2022-09-21T00:04:02.687Z,1.10
2022-09-21T00:06:33.259Z,1.20
2022-09-21T00:09:01.038Z,1.45
2022-09-21T00:11:30.224Z,1.08
2022-09-21T00:14:08.913Z,1.30
2022-09-21T00:16:36.816Z,0.90
2022-09-21T00:19:05.098Z,0.77
2022-09-21T00:21:32.727Z,1.33
2022-09-21T00:24:00.686Z,1.15
2022-09-21T00:26:28.211Z,1.13
2022-09-21T00:28:57.621Z,0.90
2022-09-21T00:31:25.585Z,0.95
2022-09-21T00:33:53.354Z,0.82
2022-09-21T00:36:24.591Z,0.93
2022-09-21T00:38:54.463Z,1.05
2022-09-21T00:41:22.143Z,0.90
2022-09-21T00:44:27.933Z,0.90
2022-09-21T00:46:58.295Z,1.25
2022-09-21T00:49:26.988Z,0.88
2022-09-21T00:51:55.418Z,0.85
2022-09-21T00:54:44.432Z,0.70
2022-09-21T00:57:12.900Z,1.10
2022-09-21T00:59:41.827Z,0.93
2022-09-21T01:02:09.301Z,0.77
2022-09-21T01:04:38.554Z,1.00
2022-09-21T01:07:12.493Z,0.93
2022-09-21T01:09:43.180Z,0.95
2022-09-21T01:12:30.222Z,0.90
2022-09-21T01:15:10.393Z,0.88
2022-09-21T01:18:21.071Z,0.90
2022-09-21T01:21:11.411Z,0.90
2022-09-21T01:23:53.513Z,1.23
2022-09-21T01:26:33.963Z,0.90
2022-09-21T01:29:17.116Z,0.90
2022-09-21T01:32:28.196Z,1.00
2022-09-21T01:35:14.194Z,0.80
2022-09-21T01:37:59.481Z,1.10
2022-09-21T01:40:35.960Z,0.93
2022-09-21T01:43:05.853Z,0.80
2022-09-21T01:45:40.962Z,0.80
2022-09-21T01:48:09.486Z,0.80
2022-09-21T01:51:02.638Z,0.88
2022-09-21T01:53:29.933Z,0.98
2022-09-21T01:56:07.872Z,0.63
2022-09-21T01:59:02.895Z,0.88
2022-09-21T02:01:34.951Z,1.08
2022-09-21T02:04:08.716Z,1.08
2022-09-21T02:06:40.185Z,1.00
2022-09-21T02:09:10.700Z,1.00
2022-09-21T02:11:42.580Z,1.20
2022-09-21T02:14:19.713Z,0.80
2022-09-21T02:17:26.556Z,1.20
2022-09-21T02:20:24.521Z,0.90
2022-09-21T02:23:22.639Z,1.35
2022-09-21T02:25:57.694Z,1.25
2022-09-21T02:28:53.093Z,1.20
2022-09-21T02:34:10.857Z,0.88
2022-09-21T02:36:53.504Z,1.25
2022-09-21T02:39:50.098Z,0.95
2022-09-21T02:42:24.290Z,1.10
2022-09-21T02:44:55.948Z,1.00
2022-09-21T02:47:32.902Z,1.13
2022-09-21T02:50:06.072Z,1.08
2022-09-21T02:52:35.761Z,1.27
2022-09-21T02:55:05.440Z,1.33
2022-09-21T02:57:33.090Z,1.00
2022-09-21T03:00:00.400Z,1.50
2022-09-21T03:02:37.584Z,1.23
2022-09-21T03:05:05.553Z,1.13
2022-09-21T03:07:33.108Z,1.50
2022-09-21T03:10:00.551Z,1.00
2022-09-21T03:12:28.015Z,1.10
2022-09-21T03:14:56.102Z,0.90
2022-09-21T03:17:23.309Z,1.52
2022-09-21T03:19:50.663Z,1.00
2022-09-21T03:22:18.003Z,1.17
2022-09-21T03:24:48.022Z,0.70
2022-09-21T03:27:20.742Z,0.90
2022-09-21T03:29:48.117Z,1.02
2022-09-21T03:32:15.453Z,1.00
2022-09-21T03:34:42.676Z,0.90
2022-09-21T03:37:10.324Z,0.93
2022-09-21T03:39:37.544Z,0.93
2022-09-21T03:42:05.810Z,0.98
2022-09-21T03:44:33.069Z,0.90
2022-09-21T03:47:00.318Z,0.95
2022-09-21T03:49:27.545Z,1.00
2022-09-21T03:51:56.172Z,1.10
2022-09-21T03:54:23.349Z,1.02
2022-09-21T03:56:50.518Z,1.25
2022-09-21T03:59:17.853Z,1.23
2022-09-21T04:01:45.265Z,1.40
2022-09-21T04:04:12.531Z,0.88
2022-09-21T04:06:41.503Z,0.85
2022-09-21T04:09:08.794Z,0.90
2022-09-21T04:11:36.089Z,1.02
2022-09-21T04:14:03.490Z,0.98
2022-09-21T04:16:30.920Z,0.85
2022-09-21T04:18:58.201Z,1.10
2022-09-21T04:21:25.377Z,0.90
2022-09-21T04:23:52.685Z,1.23
2022-09-21T04:26:32.421Z,1.00
2022-09-21T04:29:00.435Z,0.88
2022-09-21T04:31:28.790Z,0.90
2022-09-21T04:33:57.465Z,1.38
2022-09-21T04:36:27.853Z,1.10
2022-09-21T04:38:55.159Z,1.13
2022-09-21T04:41:22.450Z,0.82
2022-09-21T04:43:49.897Z,1.05
2022-09-21T04:46:20.161Z,1.27
2022-09-21T04:48:48.247Z,1.10
2022-09-21T04:51:16.366Z,1.10
2022-09-21T04:53:44.834Z,0.90
2022-09-21T04:56:14.718Z,1.17
2022-09-21T04:58:41.998Z,0.85
2022-09-21T05:01:09.428Z,1.20
2022-09-21T05:03:36.729Z,0.98
2022-09-21T05:06:04.455Z,0.90
2022-09-21T05:08:49.954Z,0.98
2022-09-21T05:11:22.894Z,1.00
2022-09-21T05:13:50.374Z,1.00
2022-09-21T05:16:18.575Z,0.90
2022-09-21T05:18:46.667Z,1.20
2022-09-21T05:21:15.057Z,1.00
2022-09-21T05:23:42.542Z,1.27
2022-09-21T05:26:09.708Z,1.00
2022-09-21T05:28:40.011Z,0.93
2022-09-21T05:31:38.435Z,1.08
2022-09-21T05:34:27.618Z,0.93
2022-09-21T05:37:12.370Z,0.80
2022-09-21T05:39:39.898Z,0.90
2022-09-21T05:42:07.717Z,1.00
2022-09-21T05:44:35.254Z,0.90
2022-09-21T05:47:51.686Z,1.08
2022-09-21T05:50:24.783Z,1.17
2022-09-21T05:53:21.265Z,1.17
2022-09-21T05:56:03.261Z,0.77
2022-09-21T05:58:36.798Z,0.93
2022-09-21T06:01:29.019Z,1.17
2022-09-21T06:03:56.944Z,0.90
2022-09-21T06:06:24.175Z,0.90
2022-09-21T06:08:51.413Z,1.20
2022-09-21T06:11:18.988Z,0.90
2022-09-21T06:13:46.194Z,0.85
2022-09-21T06:16:14.000Z,1.20
2022-09-21T06:18:42.589Z,1.08
2022-09-21T06:21:10.335Z,1.10
2022-09-21T06:23:37.656Z,1.10
2022-09-21T06:26:05.243Z,0.98
2022-09-21T06:28:32.598Z,1.20
2022-09-21T06:31:00.014Z,0.73
2022-09-21T06:33:27.346Z,1.10
2022-09-21T06:35:59.426Z,0.90
2022-09-21T06:38:28.050Z,0.90
2022-09-21T06:40:55.692Z,1.15
2022-09-21T06:43:22.922Z,1.02
2022-09-21T06:45:58.449Z,0.82
2022-09-21T06:48:27.104Z,1.23
2022-09-21T06:51:02.019Z,1.15
2022-09-21T06:53:30.745Z,0.90
2022-09-21T06:56:05.775Z,0.90
2022-09-21T06:58:37.825Z,0.98
2022-09-21T07:01:15.516Z,1.00
2022-09-21T07:03:43.519Z,0.90
2022-09-21T07:06:14.236Z,1.08
2022-09-21T07:11:29.797Z,1.17
2022-09-21T07:13:58.493Z,0.95
2022-09-21T07:16:25.724Z,1.17
2022-09-21T07:18:53.004Z,0.80
2022-09-21T07:21:20.220Z,1.35
2022-09-21T07:23:47.479Z,1.00
2022-09-21T07:26:15.184Z,1.40
2022-09-21T07:28:42.718Z,1.20
2022-09-21T07:31:14.634Z,1.30
2022-09-21T07:33:43.562Z,1.13
2022-09-21T07:36:12.907Z,1.08
2022-09-21T07:38:42.314Z,1.17
2022-09-21T07:41:12.321Z,1.17
2022-09-21T07:43:40.448Z,1.10
2022-09-21T07:46:10.333Z,1.17
2022-09-21T07:48:37.866Z,0.95
2022-09-21T07:51:06.877Z,1.20
2022-09-21T07:53:35.384Z,1.38
2022-09-21T07:56:07.302Z,1.00
2022-09-21T07:58:54.926Z,2.17
2022-09-21T08:01:22.814Z,1.60
2022-09-21T08:03:55.252Z,1.13
2022-09-21T08:06:24.006Z,0.80
2022-09-21T08:08:56.746Z,1.00
2022-09-21T08:11:26.117Z,1.13
2022-09-21T08:13:55.544Z,1.33
2022-09-21T08:16:23.263Z,1.20
2022-09-21T08:18:51.595Z,1.20
2022-09-21T08:21:20.641Z,1.17
2022-09-21T08:23:49.320Z,1.55
2022-09-21T08:26:19.734Z,1.65
2022-09-21T08:28:49.336Z,1.00
2022-09-21T08:31:19.445Z,1.45
2022-09-21T08:33:48.279Z,1.20
2022-09-21T08:36:15.579Z,1.17
2022-09-21T08:38:42.829Z,1.02
2022-09-21T08:41:36.066Z,1.95
2022-09-21T08:44:05.452Z,1.10
2022-09-21T08:46:35.010Z,1.23
2022-09-21T08:49:21.563Z,1.40
2022-09-21T08:52:00.620Z,1.42
2022-09-21T08:54:52.168Z,1.65
2022-09-21T08:57:28.909Z,1.33
2022-09-21T08:59:56.598Z,1.40
2022-09-21T09:02:53.653Z,1.10
2022-09-21T09:05:32.956Z,1.45
2022-09-21T09:08:22.026Z,1.15
2022-09-21T09:11:08.061Z,1.30
2022-09-21T09:13:59.597Z,1.30
2022-09-21T09:16:41.078Z,1.20
2022-09-21T09:19:24.419Z,1.08
2022-09-21T09:21:52.080Z,0.95
2022-09-21T09:24:48.351Z,1.15
2022-09-21T09:27:29.875Z,0.98
2022-09-21T09:30:06.700Z,1.25
2022-09-21T09:33:02.476Z,0.90
2022-09-21T09:35:33.253Z,1.42
2022-09-21T09:38:12.194Z,1.20
2022-09-21T09:41:08.867Z,1.30
2022-09-21T09:43:42.004Z,1.33
2022-09-21T09:46:23.037Z,1.95
2022-09-21T09:49:12.567Z,1.30
2022-09-21T09:51:40.886Z,1.77
2022-09-21T09:54:17.449Z,2.42
2022-09-21T09:56:44.967Z,3.00
2022-09-21T09:59:41.712Z,2.50
2022-09-21T10:02:19.919Z,1.80
2022-09-21T10:05:06.295Z,1.65
2022-09-21T10:07:34.808Z,1.50
2022-09-21T10:10:02.100Z,1.45
2022-09-21T10:12:30.737Z,1.30
2022-09-21T10:15:00.913Z,1.15
2022-09-21T10:17:28.448Z,1.30
2022-09-21T10:20:06.388Z,1.17
2022-09-21T10:22:34.020Z,1.17
2022-09-21T10:25:06.112Z,1.08
2022-09-21T10:27:43.080Z,1.00
2022-09-21T10:30:30.565Z,1.00
2022-09-21T10:32:59.222Z,1.00
2022-09-21T10:35:27.330Z,0.90
2022-09-21T10:38:12.466Z,1.00
2022-09-21T10:40:40.295Z,0.85
2022-09-21T10:43:25.400Z,0.80
2022-09-21T10:45:57.591Z,1.00
2022-09-21T10:48:27.641Z,0.60
2022-09-21T10:50:56.545Z,0.90
2022-09-21T10:53:36.373Z,0.70
2022-09-21T10:56:22.626Z,0.95
2022-09-21T10:59:22.698Z,0.70
2022-09-21T11:01:52.556Z,0.55
2022-09-21T11:04:36.993Z,0.60
2022-09-21T11:07:16.294Z,0.60
2022-09-21T11:09:55.497Z,0.93
2022-09-21T11:12:33.790Z,0.50
2022-09-21T11:15:15.494Z,0.60
2022-09-21T11:17:51.638Z,0.60
2022-09-21T11:20:22.062Z,0.70
2022-09-21T11:22:57.826Z,0.68
2022-09-21T11:25:31.307Z,0.70
2022-09-21T11:28:22.286Z,0.70
2022-09-21T11:31:21.261Z,0.90
2022-09-21T11:34:49.990Z,0.70
2022-09-21T11:38:06.981Z,0.70
2022-09-21T11:41:14.132Z,0.70
2022-09-21T11:44:04.452Z,0.80
2022-09-21T11:46:54.542Z,0.60
2022-09-21T11:49:32.385Z,0.52
2022-09-21T11:52:21.358Z,0.50
2022-09-21T11:55:23.306Z,0.60
2022-09-21T11:57:56.526Z,0.50
2022-09-21T12:00:26.719Z,0.40
2022-09-21T12:03:16.155Z,0.40
2022-09-21T12:06:05.222Z,0.52
2022-09-21T12:09:09.450Z,0.40
2022-09-21T12:11:49.570Z,0.50
2022-09-21T12:14:52.596Z,0.50
2022-09-21T12:17:47.288Z,0.40
2022-09-21T12:20:25.148Z,0.40
2022-09-21T12:23:06.290Z,0.30
2022-09-21T12:25:38.793Z,0.45
2022-09-21T12:28:20.817Z,0.80
2022-09-21T12:30:59.776Z,0.70
2022-09-21T12:33:34.264Z,0.63
2022-09-21T12:36:09.997Z,0.52
2022-09-21T12:38:44.469Z,0.68
2022-09-21T12:43:46.702Z,0.50
2022-09-21T12:47:09.382Z,0.40
2022-09-21T12:49:46.730Z,0.40
2022-09-21T12:52:33.284Z,0.50
2022-09-21T12:55:44.665Z,0.52
2022-09-21T12:58:21.165Z,0.40
2022-09-21T13:01:09.868Z,0.40
2022-09-21T13:03:59.703Z,0.50
2022-09-21T13:06:45.368Z,0.40
2022-09-21T13:09:16.325Z,0.40
2022-09-21T13:12:18.368Z,0.50
2022-09-21T13:14:49.210Z,0.63
2022-09-21T13:17:31.333Z,0.43
2022-09-21T13:20:20.719Z,0.50
2022-09-21T13:22:49.067Z,0.60
2022-09-21T13:25:28.321Z,0.47
2022-09-21T13:28:01.439Z,0.60
2022-09-21T13:30:33.091Z,0.50
2022-09-21T13:33:02.097Z,0.70
2022-09-21T13:35:50.405Z,0.50
2022-09-21T13:38:26.560Z,0.47
2022-09-21T13:41:18.130Z,0.50
2022-09-21T13:43:59.762Z,0.60
2022-09-21T13:46:36.065Z,0.55
2022-09-21T13:49:12.151Z,0.70
2022-09-21T13:51:51.414Z,0.70
2022-09-21T13:54:22.067Z,0.40
2022-09-21T13:57:00.383Z,0.65
2022-09-21T13:59:28.021Z,0.50
2022-09-21T14:01:56.250Z,0.55
2022-09-21T14:04:32.022Z,0.60
2022-09-21T14:07:05.469Z,0.50
2022-09-21T14:09:52.530Z,0.60
2022-09-21T14:12:25.261Z,0.40
2022-09-21T14:15:17.432Z,0.70
2022-09-21T14:17:45.598Z,0.98
2022-09-21T14:20:39.711Z,0.70
2022-09-21T14:23:28.883Z,0.60
2022-09-21T14:25:58.717Z,0.60
2022-09-21T14:28:38.980Z,0.57
2022-09-21T14:31:19.057Z,0.57
2022-09-21T14:33:50.305Z,0.60
2022-09-21T14:36:22.326Z,0.50
2022-09-21T14:38:58.337Z,0.50
2022-09-21T14:41:27.247Z,0.70
2022-09-21T14:43:56.721Z,0.50
2022-09-21T14:46:45.424Z,0.40
2022-09-21T14:49:31.519Z,0.40
2022-09-21T14:52:27.636Z,0.50
2022-09-21T14:55:24.802Z,0.60
2022-09-21T14:58:21.584Z,0.50
2022-09-21T15:00:50.015Z,0.60
2022-09-21T15:03:35.962Z,0.57
2022-09-21T15:06:38.054Z,0.60
2022-09-21T15:09:44.053Z,0.40
2022-09-21T15:12:23.224Z,0.50
2022-09-21T15:15:03.106Z,0.50
2022-09-21T15:17:31.476Z,0.40
2022-09-21T15:20:03.694Z,0.38
2022-09-21T15:22:32.096Z,0.43
2022-09-21T15:25:04.168Z,0.50
2022-09-21T15:27:35.870Z,0.50
2022-09-21T15:30:06.003Z,0.40
2022-09-21T15:32:48.172Z,0.40
2022-09-21T15:35:20.799Z,0.50
2022-09-21T15:37:50.996Z,0.30
2022-09-21T15:40:22.387Z,0.32
2022-09-21T15:43:01.165Z,0.40
2022-09-21T15:45:34.909Z,0.40
2022-09-21T15:48:03.578Z,0.40
2022-09-21T15:50:31.457Z,0.30
2022-09-21T15:53:05.567Z,0.50
2022-09-21T15:55:33.755Z,0.40
2022-09-21T15:58:02.911Z,0.40
2022-09-21T16:00:35.366Z,0.50
2022-09-21T16:03:20.880Z,0.40
2022-09-21T16:05:50.761Z,0.47
2022-09-21T16:08:38.283Z,0.50
2022-09-21T16:11:33.302Z,0.40
2022-09-21T16:14:33.695Z,0.40
2022-09-21T16:17:11.607Z,0.40
2022-09-21T16:19:49.822Z,0.40
2022-09-21T16:22:25.531Z,0.50
2022-09-21T16:24:55.686Z,0.50
2022-09-21T16:27:25.669Z,0.43
2022-09-21T16:29:55.462Z,0.50
2022-09-21T16:32:32.074Z,0.50
2022-09-21T16:35:27.092Z,0.55
2022-09-21T16:37:57.698Z,0.55
2022-09-21T16:40:29.355Z,0.57
2022-09-21T16:42:57.311Z,0.43
2022-09-21T16:45:28.861Z,0.50
2022-09-21T16:47:57.713Z,0.65
2022-09-21T16:50:25.743Z,0.60
2022-09-21T16:52:53.097Z,0.50
2022-09-21T16:55:23.456Z,0.60
2022-09-21T16:57:54.659Z,0.60
2022-09-21T17:00:22.412Z,0.70
2022-09-21T17:02:50.127Z,0.60
2022-09-21T17:05:20.786Z,0.50
2022-09-21T17:07:59.082Z,0.70
2022-09-21T17:10:31.887Z,0.60
2022-09-21T17:12:59.331Z,0.50
2022-09-21T17:15:29.127Z,0.50
2022-09-21T17:17:59.100Z,0.45
2022-09-21T17:20:41.238Z,0.40
2022-09-21T17:23:08.759Z,0.45
2022-09-21T17:25:36.916Z,1.20
2022-09-21T17:28:16.728Z,0.52
2022-09-21T17:30:46.540Z,0.50
2022-09-21T17:33:13.880Z,0.60
2022-09-21T17:35:42.133Z,0.50
2022-09-21T17:38:14.174Z,0.50
2022-09-21T17:40:43.130Z,0.32
2022-09-21T17:43:50.437Z,0.50
2022-09-21T17:46:38.537Z,0.40
2022-09-21T17:49:06.272Z,0.50
2022-09-21T17:51:52.010Z,0.50
2022-09-21T17:54:19.642Z,0.50
2022-09-21T17:56:58.375Z,0.57
2022-09-21T17:59:34.615Z,0.70
2022-09-21T18:02:04.154Z,0.52
2022-09-21T18:04:35.215Z,0.63
2022-09-21T18:07:03.281Z,0.60
2022-09-21T18:09:30.811Z,0.60
2022-09-21T18:12:29.206Z,0.60
2022-09-21T18:15:04.469Z,0.68
2022-09-21T18:18:08.588Z,0.60
2022-09-21T18:21:02.367Z,0.60
2022-09-21T18:24:14.920Z,0.90
2022-09-21T18:26:43.316Z,0.70
2022-09-21T18:29:40.705Z,0.70
2022-09-21T18:32:37.803Z,1.17
2022-09-21T18:35:42.696Z,0.90
2022-09-21T18:38:21.425Z,0.77
2022-09-21T18:41:20.461Z,1.20
2022-09-21T18:44:10.815Z,0.85
2022-09-21T18:46:56.199Z,1.10
2022-09-21T18:49:52.298Z,1.30
2022-09-21T18:52:44.497Z,1.27
2022-09-21T18:55:25.708Z,1.75
2022-09-21T18:57:55.024Z,2.17
2022-09-21T19:00:23.261Z,2.03
2022-09-21T19:03:12.797Z,1.63
2022-09-21T19:05:42.230Z,2.47
2022-09-21T19:08:20.230Z,2.33
2022-09-21T19:11:32.436Z,2.50
2022-09-21T19:14:12.190Z,2.55
2022-09-21T19:16:48.887Z,2.13
2022-09-21T19:19:53.822Z,1.90
2022-09-21T19:22:21.074Z,1.95
2022-09-21T19:24:58.546Z,1.90
2022-09-21T19:27:42.250Z,1.45
2022-09-21T19:30:15.367Z,1.50
2022-09-21T19:32:53.213Z,1.90
2022-09-21T19:35:30.919Z,1.23
2022-09-21T19:38:03.278Z,1.42
2022-09-21T19:40:33.460Z,1.30
2022-09-21T19:43:20.791Z,1.48
2022-09-21T19:45:51.502Z,1.10
2022-09-21T19:48:22.904Z,1.10
2022-09-21T19:50:58.961Z,1.27
2022-09-21T19:53:45.357Z,1.00
2022-09-21T19:56:34.614Z,1.20
2022-09-21T19:59:21.323Z,1.20
2022-09-21T20:01:56.363Z,1.00
2022-09-21T20:04:32.261Z,1.65
2022-09-21T20:07:05.783Z,1.05
2022-09-21T20:09:57.691Z,1.52
2022-09-21T20:12:51.374Z,1.40
2022-09-21T20:15:22.694Z,1.30
2022-09-21T20:17:56.858Z,1.77
2022-09-21T20:20:29.194Z,1.45
2022-09-21T20:22:57.044Z,1.50
2022-09-21T20:25:37.304Z,1.15
2022-09-21T20:28:05.665Z,1.33
2022-09-21T20:30:35.985Z,1.40
2022-09-21T20:33:09.741Z,1.77
2022-09-21T20:35:37.192Z,2.47
2022-09-21T20:38:04.901Z,1.38
2022-09-21T20:40:32.732Z,1.27
2022-09-21T20:43:03.704Z,1.60
2022-09-21T20:45:33.290Z,2.10
2022-09-21T20:48:13.359Z,1.40
2022-09-21T20:50:42.904Z,1.95
2022-09-21T20:53:10.541Z,1.38
2022-09-21T20:55:38.852Z,1.48
2022-09-21T20:58:06.241Z,1.45
2022-09-21T21:00:34.240Z,1.67
2022-09-21T21:03:01.922Z,1.10
2022-09-21T21:05:29.408Z,1.73
2022-09-21T21:07:57.718Z,1.38
2022-09-21T21:10:25.348Z,1.23
2022-09-21T21:12:52.721Z,1.65
2022-09-21T21:15:20.070Z,1.23
2022-09-21T21:17:48.665Z,1.83
2022-09-21T21:20:16.904Z,1.40
2022-09-21T21:22:45.422Z,1.67
2022-09-21T21:25:12.813Z,1.42
2022-09-21T21:27:40.173Z,1.58
2022-09-21T21:30:09.737Z,1.52
2022-09-21T21:32:37.698Z,1.25
2022-09-21T21:35:05.670Z,1.20
2022-09-21T21:37:32.995Z,1.25
2022-09-21T21:40:00.590Z,0.95
2022-09-21T21:42:29.539Z,1.10
2022-09-21T21:44:57.156Z,1.00
2022-09-21T21:47:39.396Z,1.25
2022-09-21T21:50:08.404Z,1.30
2022-09-21T21:52:35.676Z,1.10
2022-09-21T21:55:03.978Z,1.20
2022-09-21T21:57:31.316Z,1.40
2022-09-21T21:59:58.693Z,1.20
2022-09-21T22:02:26.110Z,1.20
2022-09-21T22:04:53.568Z,0.88
2022-09-21T22:07:20.896Z,0.98
2022-09-21T22:09:48.197Z,0.98
2022-09-21T22:12:15.816Z,0.95
2022-09-21T22:14:46.354Z,0.80
2022-09-21T22:17:14.704Z,0.80
2022-09-21T22:19:45.672Z,0.95
2022-09-21T22:22:13.098Z,1.10
2022-09-21T22:24:40.483Z,0.90
2022-09-21T22:27:08.264Z,1.15
2022-09-21T22:29:35.957Z,1.42
2022-09-21T22:32:03.531Z,1.13
2022-09-21T22:34:30.966Z,0.95
2022-09-21T22:37:01.390Z,1.20
2022-09-21T22:39:28.896Z,0.93
2022-09-21T22:41:56.228Z,1.08
2022-09-21T22:44:24.080Z,1.80
2022-09-21T22:46:51.916Z,1.20
2022-09-21T22:49:19.325Z,1.40
2022-09-21T22:51:46.861Z,1.48
2022-09-21T22:54:14.242Z,1.52
2022-09-21T22:56:41.857Z,1.38
2022-09-21T22:59:09.657Z,1.25
2022-09-21T23:01:39.749Z,0.90
2022-09-21T23:04:09.808Z,1.30
2022-09-21T23:06:39.470Z,1.30
2022-09-21T23:09:09.792Z,1.13
2022-09-21T23:11:42.071Z,1.25
2022-09-21T23:14:11.430Z,1.23
2022-09-21T23:16:38.941Z,1.30
2022-09-21T23:19:07.359Z,1.38
2022-09-21T23:21:34.798Z,1.13
2022-09-21T23:24:03.384Z,1.35
2022-09-21T23:26:32.207Z,1.20
2022-09-21T23:29:01.669Z,1.10
2022-09-21T23:31:30.443Z,1.20
2022-09-21T23:34:00.043Z,1.48
2022-09-21T23:36:30.396Z,1.42
2022-09-21T23:38:58.662Z,1.00
2022-09-21T23:41:28.523Z,0.90
2022-09-21T23:43:56.840Z,1.08
2022-09-21T23:46:27.095Z,1.10
2022-09-21T23:48:54.713Z,0.95
2022-09-21T23:51:22.473Z,0.85
2022-09-21T23:53:50.349Z,0.90
2022-09-21T23:56:20.440Z,0.90
2022-09-21T23:58:48.682Z,1.17
